Time;durP1;ratioP1;P1;durP2;ratioP2;P2;SDS_P1;SDS_P2;PMS_P1;PMS_P2;Temp;Humidity;BMP_temperature;BMP_pressure;BME280_temperature;BME280_humidity;BME280_pressure;Samples;Min_cycle;Max_cycle;Signal;HPM_P1;HPM_P2
2023/03/06 00:00:39;;;;;;;1.23;1.17;;;;;;;;;;6249631;28;20029;-79
2023/03/06 00:03:39;;;;;;;0.50;0.50;;;;;;;;;;6246468;28;20021;-79
2023/03/06 00:06:40;;;;;;;1.63;1.52;;;;;;;;;;6232411;28;20113;-79
2023/03/06 00:09:41;;;;;;;0.40;0.40;;;;;;;;;;6249242;28;20021;-79
2023/03/06 00:12:41;;;;;;;1.63;1.52;;;;;;;;;;6254127;28;20099;-80
2023/03/06 00:15:43;;;;;;;1.47;1.47;;;;;;;;;;6252711;28;20026;-80
2023/03/06 00:18:46;;;;;;;0.55;0.55;;;;;;;;;;6230708;28;20025;-79
2023/03/06 00:21:46;;;;;;;2.33;2.22;;;;;;;;;;6240455;28;20447;-81
2023/03/06 00:24:47;;;;;;;0.30;0.30;;;;;;;;;;6251715;28;20030;-79
2023/03/06 00:27:47;;;;;;;0.73;0.73;;;;;;;;;;6246996;28;20072;-80
2023/03/06 00:30:47;;;;;;;0.63;0.63;;;;;;;;;;6252911;28;20101;-79
2023/03/06 00:33:48;;;;;;;0.73;0.73;;;;;;;;;;6245738;28;20017;-79
2023/03/06 00:36:48;;;;;;;2.33;2.13;;;;;;;;;;6234339;28;20021;-79
2023/03/06 00:39:48;;;;;;;0.30;0.30;;;;;;;;;;6249943;28;20036;-80
2023/03/06 00:42:48;;;;;;;0.37;0.37;;;;;;;;;;6254204;28;20868;-80
2023/03/06 00:45:50;;;;;;;3.58;3.33;;;;;;;;;;6251993;28;20029;-80
2023/03/06 00:48:50;;;;;;;0.73;0.73;;;;;;;;;;6250884;28;20036;-80
2023/03/06 00:51:50;;;;;;;9.68;2.30;;;;;;;;;;6253194;28;20017;-80
2023/03/06 00:54:50;;;;;;;1.17;1.17;;;;;;;;;;6259240;28;20457;-80
2023/03/06 00:57:51;;;;;;;1.88;1.27;;;;;;;;;;6251707;28;20029;-80
2023/03/06 01:00:51;;;;;;;0.40;0.40;;;;;;;;;;6253095;28;20474;-80
2023/03/06 01:03:51;;;;;;;1.47;1.37;;;;;;;;;;6246080;28;20017;-81
2023/03/06 01:06:53;;;;;;;0.73;0.73;;;;;;;;;;6245143;28;20025;-80
2023/03/06 01:09:53;;;;;;;0.60;0.60;;;;;;;;;;6244478;28;20029;-80
2023/03/06 01:12:54;;;;;;;0.23;0.23;;;;;;;;;;6255503;28;20087;-80
2023/03/06 01:15:54;;;;;;;0.50;0.50;;;;;;;;;;6254313;28;20025;-80
2023/03/06 01:18:54;;;;;;;0.30;0.30;;;;;;;;;;6234647;28;20056;-79
2023/03/06 01:21:55;;;;;;;4.03;3.73;;;;;;;;;;6238022;28;20079;-78
2023/03/06 01:24:55;;;;;;;1.50;1.40;;;;;;;;;;6237827;28;20021;-80
2023/03/06 01:27:56;;;;;;;1.00;1.00;;;;;;;;;;6253610;28;20021;-80
2023/03/06 01:30:56;;;;;;;0.40;0.40;;;;;;;;;;6266376;28;20024;-80
2023/03/06 01:33:56;;;;;;;5.60;1.70;;;;;;;;;;6232932;28;20958;-78
2023/03/06 01:36:56;;;;;;;0.60;0.60;;;;;;;;;;6239532;28;20335;-78
2023/03/06 01:39:57;;;;;;;2.00;1.90;;;;;;;;;;6221455;28;20072;-78
2023/03/06 01:42:57;;;;;;;0.80;0.80;;;;;;;;;;6222675;28;20099;-78
2023/03/06 01:46:16;;;;;;;1.10;1.10;;;;;;;;;;6224102;28;20021;-78
2023/03/06 01:49:24;;;;;;;2.15;2.05;;;;;;;;;;6241992;28;20025;-79
2023/03/06 01:52:27;;;;;;;1.40;1.40;;;;;;;;;;6245499;28;20098;-78
2023/03/06 01:55:31;;;;;;;5.00;4.55;;;;;;;;;;6230678;28;20032;-78
2023/03/06 01:58:32;;;;;;;0.60;0.60;;;;;;;;;;6256352;28;20075;-78
2023/03/06 02:01:32;;;;;;;0.30;0.30;;;;;;;;;;6252463;28;20395;-78
2023/03/06 02:04:33;;;;;;;2.00;1.90;;;;;;;;;;6259461;28;20024;-78
2023/03/06 02:07:33;;;;;;;4.83;2.67;;;;;;;;;;6245408;28;20049;-77
2023/03/06 02:10:33;;;;;;;3.90;2.83;;;;;;;;;;6246248;28;20093;-77
2023/03/06 02:13:35;;;;;;;13.37;3.07;;;;;;;;;;6250485;28;20384;-77
2023/03/06 02:16:35;;;;;;;0.83;0.83;;;;;;;;;;6227606;28;20479;-77
2023/03/06 02:19:56;;;;;;;0.50;0.50;;;;;;;;;;6229305;28;20450;-78
2023/03/06 02:22:59;;;;;;;0.55;0.55;;;;;;;;;;6243882;28;20483;-77
2023/03/06 02:26:00;;;;;;;1.10;1.10;;;;;;;;;;6245813;28;20032;-77
2023/03/06 02:29:00;;;;;;;2.70;1.90;;;;;;;;;;6247879;28;20021;-77
2023/03/06 02:32:01;;;;;;;1.83;1.73;;;;;;;;;;6248121;28;20116;-77
2023/03/06 02:35:02;;;;;;;2.03;2.00;;;;;;;;;;6248963;28;20033;-77
2023/03/06 02:38:02;;;;;;;;;;;;;;;;;;6252112;28;20246;-77
2023/03/06 02:41:05;;;;;;;2.67;2.47;;;;;;;;;;6252059;28;19904;-77
2023/03/06 02:44:06;;;;;;;0.57;0.57;;;;;;;;;;6251223;28;20144;-76
2023/03/06 02:47:06;;;;;;;2.40;1.13;;;;;;;;;;6230328;28;20040;-77
2023/03/06 02:50:07;;;;;;;4.13;2.27;;;;;;;;;;6230659;28;20022;-76
2023/03/06 02:53:08;;;;;;;0.93;0.93;;;;;;;;;;6248118;28;20017;-77
2023/03/06 02:56:09;;;;;;;2.17;2.08;;;;;;;;;;6252442;28;20391;-76
2023/03/06 02:59:09;;;;;;;0.70;0.70;;;;;;;;;;6248318;28;20033;-76
2023/03/06 03:02:10;;;;;;;0.97;0.97;;;;;;;;;;6247430;28;20025;-76
2023/03/06 03:05:10;;;;;;;1.27;1.27;;;;;;;;;;6249029;28;20021;-76
2023/03/06 03:08:10;;;;;;;0.68;0.68;;;;;;;;;;6248177;28;20033;-76
2023/03/06 03:11:11;;;;;;;0.40;0.40;;;;;;;;;;6247569;28;20112;-76
2023/03/06 03:14:11;;;;;;;0.40;0.40;;;;;;;;;;6236114;28;20136;-76
2023/03/06 03:17:11;;;;;;;1.47;1.47;;;;;;;;;;6246777;28;20388;-76
2023/03/06 03:20:13;;;;;;;1.17;1.15;;;;;;;;;;6257335;28;20043;-76
2023/03/06 03:23:13;;;;;;;0.88;0.88;;;;;;;;;;6251451;28;20431;-77
2023/03/06 03:26:15;;;;;;;3.30;3.00;;;;;;;;;;6255136;28;20029;-76
2023/03/06 03:29:15;;;;;;;0.43;0.43;;;;;;;;;;6248858;28;20026;-76
2023/03/06 03:32:15;;;;;;;2.65;2.50;;;;;;;;;;6250167;28;20478;-76
2023/03/06 03:35:15;;;;;;;1.87;1.80;;;;;;;;;;6253258;28;20033;-76
2023/03/06 03:38:15;;;;;;;2.23;2.13;;;;;;;;;;6248890;28;20098;-76
2023/03/06 03:41:16;;;;;;;2.07;1.90;;;;;;;;;;6248546;28;20388;-77
2023/03/06 03:44:16;;;;;;;14.20;3.25;;;;;;;;;;6246083;28;20021;-77
2023/03/06 03:47:16;;;;;;;19.13;7.60;;;;;;;;;;6248974;28;20348;-77
2023/03/06 03:50:16;;;;;;;3.93;3.70;;;;;;;;;;6236994;28;20099;-76
2023/03/06 03:53:17;;;;;;;4.73;4.47;;;;;;;;;;6258986;28;20029;-77
2023/03/06 03:56:17;;;;;;;1.50;1.50;;;;;;;;;;6234243;28;20055;-77
2023/03/06 03:59:17;;;;;;;2.93;2.30;;;;;;;;;;6246706;28;20026;-77
2023/03/06 04:02:20;;;;;;;1.73;1.67;;;;;;;;;;6245303;28;20022;-77
2023/03/06 04:05:20;;;;;;;3.72;3.53;;;;;;;;;;6249541;28;20018;-77
2023/03/06 04:08:20;;;;;;;2.33;2.23;;;;;;;;;;6259852;28;20487;-77
2023/03/06 04:11:22;;;;;;;1.00;1.00;;;;;;;;;;6259111;28;20029;-77
2023/03/06 04:14:24;;;;;;;4.43;2.65;;;;;;;;;;6241080;28;20053;-77
2023/03/06 04:17:24;;;;;;;1.15;1.15;;;;;;;;;;6245695;28;20124;-77
2023/03/06 04:20:25;;;;;;;3.07;2.90;;;;;;;;;;6246117;28;20036;-77
2023/03/06 04:23:26;;;;;;;0.43;0.43;;;;;;;;;;6246256;28;20392;-76
2023/03/06 04:26:26;;;;;;;7.18;2.53;;;;;;;;;;6246159;28;20440;-76
2023/03/06 04:29:27;;;;;;;0.50;0.50;;;;;;;;;;6245927;28;20029;-77
2023/03/06 04:32:27;;;;;;;1.85;1.75;;;;;;;;;;6245905;28;20017;-77
2023/03/06 04:35:27;;;;;;;0.40;0.40;;;;;;;;;;6244929;28;20083;-76
2023/03/06 04:38:27;;;;;;;0.67;0.67;;;;;;;;;;6245777;28;20025;-77
2023/03/06 04:41:27;;;;;;;1.33;1.27;;;;;;;;;;6246046;28;20021;-76
2023/03/06 04:44:28;;;;;;;1.17;1.17;;;;;;;;;;6245190;28;20388;-75
2023/03/06 04:47:28;;;;;;;10.60;1.90;;;;;;;;;;6247019;28;20018;-76
2023/03/06 04:50:31;;;;;;;1.23;1.23;;;;;;;;;;6227928;28;20049;-76
2023/03/06 04:53:31;;;;;;;3.88;3.67;;;;;;;;;;6244128;28;20029;-76
2023/03/06 04:56:33;;;;;;;2.20;2.10;;;;;;;;;;6245042;28;20037;-75
2023/03/06 04:59:33;;;;;;;5.95;5.25;;;;;;;;;;6227612;28;20022;-75
2023/03/06 05:02:33;;;;;;;3.30;3.10;;;;;;;;;;6246084;28;20502;-76
2023/03/06 05:05:35;;;;;;;2.50;2.33;;;;;;;;;;6248143;28;20030;-76
2023/03/06 05:08:35;;;;;;;18.42;5.28;;;;;;;;;;6247026;28;20365;-77
2023/03/06 05:11:35;;;;;;;4.07;3.43;;;;;;;;;;6245124;28;20024;-76
2023/03/06 05:14:36;;;;;;;10.30;2.50;;;;;;;;;;6247121;28;20052;-76
2023/03/06 05:17:37;;;;;;;26.77;5.97;;;;;;;;;;6245552;28;20033;-77
2023/03/06 05:20:37;;;;;;;6.77;5.33;;;;;;;;;;6244630;28;20121;-76
2023/03/06 05:23:37;;;;;;;6.97;6.43;;;;;;;;;;6251498;28;20080;-77
2023/03/06 05:26:37;;;;;;;6.73;2.20;;;;;;;;;;6251832;28;20364;-77
2023/03/06 05:29:37;;;;;;;2.25;2.13;;;;;;;;;;6234044;28;20022;-78
2023/03/06 05:32:38;;;;;;;1.83;1.83;;;;;;;;;;6243642;28;20022;-77
2023/03/06 05:35:38;;;;;;;2.72;2.58;;;;;;;;;;6250268;28;20040;-77
2023/03/06 05:38:38;;;;;;;0.60;0.60;;;;;;;;;;6248022;28;20103;-77
2023/03/06 05:41:39;;;;;;;3.00;2.80;;;;;;;;;;6243799;28;20032;-77
2023/03/06 05:44:40;;;;;;;5.43;3.67;;;;;;;;;;6242420;28;20029;-77
2023/03/06 05:47:40;;;;;;;1.80;1.70;;;;;;;;;;6250771;28;20037;-77
2023/03/06 05:50:41;;;;;;;2.03;1.93;;;;;;;;;;6220944;28;20021;-77
2023/03/06 05:53:41;;;;;;;4.00;3.80;;;;;;;;;;6243623;28;20124;-77
2023/03/06 05:56:41;;;;;;;2.05;1.95;;;;;;;;;;6248004;28;20136;-78
2023/03/06 05:59:41;;;;;;;4.90;4.60;;;;;;;;;;6241138;28;20029;-77
2023/03/06 06:02:43;;;;;;;2.83;2.73;;;;;;;;;;6243946;28;20351;-77
2023/03/06 06:05:43;;;;;;;1.20;1.20;;;;;;;;;;6250592;28;20041;-78
2023/03/06 06:08:43;;;;;;;2.10;2.00;;;;;;;;;;6245536;28;20022;-78
2023/03/06 06:11:43;;;;;;;4.07;3.87;;;;;;;;;;6250513;28;20021;-78
2023/03/06 06:14:44;;;;;;;8.13;6.78;;;;;;;;;;6246619;28;20057;-78
2023/03/06 06:17:44;;;;;;;2.80;2.70;;;;;;;;;;6255125;28;20104;-76
2023/03/06 06:20:44;;;;;;;3.03;2.90;;;;;;;;;;6238255;28;20021;-77
2023/03/06 06:23:45;;;;;;;5.68;5.22;;;;;;;;;;6253547;28;20036;-77
2023/03/06 06:26:46;;;;;;;1.30;1.27;;;;;;;;;;6243275;28;20067;-77
2023/03/06 06:29:48;;;;;;;13.67;4.63;;;;;;;;;;6249731;28;20486;-77
2023/03/06 06:32:48;;;;;;;2.53;2.25;;;;;;;;;;6237204;28;20030;-78
2023/03/06 06:35:49;;;;;;;8.60;3.47;;;;;;;;;;6249764;28;20387;-78
2023/03/06 06:38:49;;;;;;;4.70;2.60;;;;;;;;;;6244006;28;20549;-78
2023/03/06 06:41:51;;;;;;;0.83;0.83;;;;;;;;;;6239107;28;20032;-78
2023/03/06 06:44:51;;;;;;;8.80;5.57;;;;;;;;;;6245908;28;20032;-78
2023/03/06 06:47:52;;;;;;;6.03;5.50;;;;;;;;;;6249503;28;20057;-78
2023/03/06 06:50:58;;;;;;;5.40;4.90;;;;;;;;;;6226721;28;20045;-78
2023/03/06 06:53:59;;;;;;;4.70;4.40;;;;;;;;;;6231338;28;20033;-78
2023/03/06 06:56:59;;;;;;;3.77;3.57;;;;;;;;;;6243748;28;20491;-78
2023/03/06 06:59:59;;;;;;;4.23;3.93;;;;;;;;;;6250225;28;20479;-78
2023/03/06 07:02:59;;;;;;;2.30;2.15;;;;;;;;;;6243823;28;20064;-78
2023/03/06 07:05:59;;;;;;;16.83;5.20;;;;;;;;;;6245329;28;20018;-77
2023/03/06 07:09:00;;;;;;;4.03;3.73;;;;;;;;;;6225495;28;20068;-77
2023/03/06 07:12:00;;;;;;;7.00;6.53;;;;;;;;;;6229847;28;20100;-77
2023/03/06 07:15:00;;;;;;;5.67;5.13;;;;;;;;;;6246718;28;20025;-77
2023/03/06 07:18:00;;;;;;;3.53;3.37;;;;;;;;;;6249193;28;20033;-77
2023/03/06 07:21:01;;;;;;;5.30;5.03;;;;;;;;;;6251536;28;20021;-77
2023/03/06 07:24:01;;;;;;;3.77;3.57;;;;;;;;;;6246276;28;20491;-77
2023/03/06 07:27:01;;;;;;;2.27;2.17;;;;;;;;;;6247110;28;20107;-78
2023/03/06 07:30:01;;;;;;;13.50;9.10;;;;;;;;;;6258076;28;20079;-79
2023/03/06 07:33:01;;;;;;;5.23;3.87;;;;;;;;;;6261543;28;20020;-79
2023/03/06 07:36:02;;;;;;;5.50;5.13;;;;;;;;;;6251146;28;20014;-80
2023/03/06 07:39:04;;;;;;;6.63;6.07;;;;;;;;;;6249416;28;20471;-79
2023/03/06 07:42:06;;;;;;;1.00;1.00;;;;;;;;;;6249210;28;20021;-79
2023/03/06 07:45:07;;;;;;;5.53;3.05;;;;;;;;;;6256018;28;20040;-80
2023/03/06 07:48:08;;;;;;;5.38;5.03;;;;;;;;;;6253456;28;20041;-80
2023/03/06 07:51:26;;;;;;;5.93;5.00;;;;;;;;;;6221019;28;20144;-80
2023/03/06 07:54:29;;;;;;;4.30;3.90;;;;;;;;;;6250857;28;20029;-80
2023/03/06 07:57:29;;;;;;;3.58;3.35;;;;;;;;;;6242095;28;20472;-79
2023/03/06 08:00:29;;;;;;;3.78;3.53;;;;;;;;;;6250809;28;20026;-80
2023/03/06 08:03:30;;;;;;;3.50;3.23;;;;;;;;;;6259309;28;20425;-80
2023/03/06 08:06:30;;;;;;;2.15;2.05;;;;;;;;;;6252313;28;20141;-79
2023/03/06 08:09:32;;;;;;;5.43;4.93;;;;;;;;;;6245879;28;20025;-79
2023/03/06 08:12:32;;;;;;;2.08;1.88;;;;;;;;;;6251192;28;20049;-79
2023/03/06 08:15:32;;;;;;;7.57;2.17;;;;;;;;;;6248660;28;20082;-80
2023/03/06 08:18:33;;;;;;;6.60;5.97;;;;;;;;;;6249359;28;20026;-80
2023/03/06 08:21:33;;;;;;;2.50;2.40;;;;;;;;;;6249337;28;20212;-80
2023/03/06 08:24:33;;;;;;;5.83;2.77;;;;;;;;;;6248199;28;20064;-81
2023/03/06 08:27:33;;;;;;;5.82;5.28;;;;;;;;;;6251768;28;20021;-81
2023/03/06 08:30:34;;;;;;;3.37;3.10;;;;;;;;;;6249906;28;20024;-81
2023/03/06 08:33:35;;;;;;;11.88;2.10;;;;;;;;;;6251618;28;20045;-82
2023/03/06 08:36:35;;;;;;;5.30;3.43;;;;;;;;;;6235083;28;20493;-83
2023/03/06 08:39:35;;;;;;;1.70;1.70;;;;;;;;;;6227457;28;20018;-82
2023/03/06 08:42:36;;;;;;;7.93;4.43;;;;;;;;;;6254517;28;20013;-83
2023/03/06 08:45:36;;;;;;;9.63;5.73;;;;;;;;;;6241232;28;20106;-82
2023/03/06 08:48:37;;;;;;;4.87;4.47;;;;;;;;;;6260476;28;20044;-84
2023/03/06 08:51:37;;;;;;;1.33;1.33;;;;;;;;;;6248673;28;20020;-84
2023/03/06 08:54:38;;;;;;;2.10;2.00;;;;;;;;;;6253988;28;20045;-84
2023/03/06 08:57:38;;;;;;;5.30;4.03;;;;;;;;;;6245795;28;20373;-82
2023/03/06 09:00:38;;;;;;;3.53;3.23;;;;;;;;;;6226123;28;20037;-83
2023/03/06 09:03:40;;;;;;;2.13;2.00;;;;;;;;;;6240489;28;20067;-83
2023/03/06 09:06:41;;;;;;;3.47;3.17;;;;;;;;;;6248002;28;20108;-83
2023/03/06 09:09:42;;;;;;;4.72;4.13;;;;;;;;;;6256345;28;20017;-83
2023/03/06 09:12:43;;;;;;;2.23;2.10;;;;;;;;;;6250728;28;20046;-81
2023/03/06 09:15:43;;;;;;;1.07;1.07;;;;;;;;;;6232132;28;20057;-84
2023/03/06 09:18:43;;;;;;;3.53;3.25;;;;;;;;;;6245343;28;20482;-83
2023/03/06 09:21:43;;;;;;;3.87;3.57;;;;;;;;;;6252546;28;20359;-84
2023/03/06 09:24:43;;;;;;;3.93;3.37;;;;;;;;;;6253165;28;20036;-83
2023/03/06 09:27:44;;;;;;;3.37;3.10;;;;;;;;;;6251474;28;20025;-80
2023/03/06 09:30:44;;;;;;;2.97;2.87;;;;;;;;;;6255269;28;20055;-82
2023/03/06 09:33:44;;;;;;;2.37;2.27;;;;;;;;;;6245785;28;20068;-82
2023/03/06 09:36:45;;;;;;;3.00;2.87;;;;;;;;;;6245506;28;20424;-79
2023/03/06 09:39:45;;;;;;;2.30;1.90;;;;;;;;;;6226706;28;20021;-79
2023/03/06 09:42:46;;;;;;;2.17;2.03;;;;;;;;;;6244539;28;20013;-77
2023/03/06 09:45:46;;;;;;;2.17;1.92;;;;;;;;;;6240679;28;20020;-77
2023/03/06 09:48:47;;;;;;;0.65;0.65;;;;;;;;;;6240886;28;20369;-77
2023/03/06 09:52:06;;;;;;;3.13;2.53;;;;;;;;;;6243027;28;20068;-77
2023/03/06 09:55:11;;;;;;;2.65;2.55;;;;;;;;;;6250697;28;20387;-77
2023/03/06 09:58:23;;;;;;;4.60;4.13;;;;;;;;;;6246534;28;20307;-78
2023/03/06 10:01:23;;;;;;;3.10;2.50;;;;;;;;;;6243145;28;20022;-78
2023/03/06 10:04:23;;;;;;;2.93;2.73;;;;;;;;;;6244984;28;20476;-78
2023/03/06 10:07:59;;;;;;;7.18;3.90;;;;;;;;;;6223416;28;20557;-77
2023/03/06 10:11:00;;;;;;;3.70;3.33;;;;;;;;;;6204906;28;20499;-78
2023/03/06 10:14:10;;;;;;;1.33;1.33;;;;;;;;;;6249541;28;20510;-77
2023/03/06 10:17:19;;;;;;;3.50;3.20;;;;;;;;;;6233689;28;20080;-77
2023/03/06 10:20:23;;;;;;;3.70;1.83;;;;;;;;;;6245342;28;20029;-77
2023/03/06 10:23:26;;;;;;;9.75;3.20;;;;;;;;;;6240797;28;20025;-77
2023/03/06 10:26:38;;;;;;;5.75;5.13;;;;;;;;;;6245513;28;20467;-77
2023/03/06 10:29:38;;;;;;;;;;;;;;;;;;6247319;28;20026;-76
2023/03/06 10:32:46;;;;;;;6.88;2.85;;;;;;;;;;6250470;28;19905;-77
2023/03/06 10:35:51;;;;;;;1.70;1.60;;;;;;;;;;6247430;28;20096;-77
2023/03/06 10:38:51;;;;;;;15.48;4.18;;;;;;;;;;6242557;28;20052;-77
2023/03/06 10:41:52;;;;;;;3.22;2.25;;;;;;;;;;6246968;28;20037;-78
2023/03/06 10:45:08;;;;;;;0.95;0.95;;;;;;;;;;6243908;28;20475;-78
2023/03/06 10:48:10;;;;;;;5.13;2.40;;;;;;;;;;6243013;28;20026;-79
2023/03/06 10:51:18;;;;;;;3.08;2.90;;;;;;;;;;6250498;28;20021;-78
2023/03/06 10:54:20;;;;;;;2.05;1.85;;;;;;;;;;6250465;28;20059;-78
2023/03/06 10:57:31;;;;;;;1.77;1.67;;;;;;;;;;6250793;28;20108;-78
2023/03/06 11:00:34;;;;;;;3.97;3.67;;;;;;;;;;6239106;28;20153;-78
2023/03/06 11:03:35;;;;;;;2.45;2.35;;;;;;;;;;6241011;28;20017;-77
2023/03/06 11:06:37;;;;;;;1.80;1.63;;;;;;;;;;6252521;28;20036;-77
2023/03/06 11:09:37;;;;;;;2.00;1.90;;;;;;;;;;6232201;28;20026;-77
2023/03/06 11:12:38;;;;;;;1.07;1.03;;;;;;;;;;6248172;28;20107;-77
2023/03/06 11:15:42;;;;;;;2.00;1.88;;;;;;;;;;6246686;28;20013;-78
2023/03/06 11:18:53;;;;;;;0.93;0.93;;;;;;;;;;6251296;28;20127;-77
2023/03/06 11:22:01;;;;;;;2.88;1.90;;;;;;;;;;6246180;28;20034;-77
2023/03/06 11:25:01;;;;;;;1.95;1.85;;;;;;;;;;6246195;28;20025;-77
2023/03/06 11:28:07;;;;;;;4.00;3.70;;;;;;;;;;6246441;28;20466;-77
2023/03/06 11:31:10;;;;;;;3.63;2.60;;;;;;;;;;6235453;28;20365;-78
2023/03/06 11:34:10;;;;;;;0.70;0.70;;;;;;;;;;6241120;28;20033;-77
2023/03/06 11:37:19;;;;;;;3.08;1.23;;;;;;;;;;6216835;28;20071;-77
2023/03/06 11:40:42;;;;;;;0.30;0.30;;;;;;;;;;6242898;28;20124;-78
2023/03/06 11:44:12;;;;;;;1.98;1.88;;;;;;;;;;6245000;28;20032;-78
2023/03/06 11:47:17;;;;;;;0.70;0.70;;;;;;;;;;6239162;28;20045;-77
2023/03/06 11:50:24;;;;;;;0.28;0.28;;;;;;;;;;6253724;28;20049;-77
2023/03/06 11:53:31;;;;;;;0.43;0.43;;;;;;;;;;6251567;28;20441;-77
2023/03/06 11:56:46;;;;;;;0.22;0.22;;;;;;;;;;6232389;28;20032;-77
2023/03/06 11:59:54;;;;;;;1.25;1.13;;;;;;;;;;6264899;28;20100;-77
2023/03/06 12:03:02;;;;;;;0.77;0.77;;;;;;;;;;6246500;28;20025;-77
2023/03/06 12:06:21;;;;;;;7.85;1.60;;;;;;;;;;6251529;28;20033;-77
2023/03/06 12:09:27;;;;;;;1.30;1.15;;;;;;;;;;6238083;28;20026;-77
2023/03/06 12:12:46;;;;;;;0.50;0.50;;;;;;;;;;6259594;28;20040;-77
2023/03/06 12:15:46;;;;;;;2.10;2.00;;;;;;;;;;6259801;28;20021;-77
2023/03/06 12:19:01;;;;;;;2.35;2.08;;;;;;;;;;6257780;28;20100;-76
2023/03/06 12:22:28;;;;;;;2.88;0.75;;;;;;;;;;6257611;28;20021;-77
2023/03/06 12:25:48;;;;;;;5.20;2.85;;;;;;;;;;6238329;28;20042;-77
2023/03/06 12:29:07;;;;;;;1.85;1.77;;;;;;;;;;6245614;28;20023;-77
2023/03/06 12:32:25;;;;;;;2.05;1.90;;;;;;;;;;6249280;28;20033;-77
2023/03/06 12:35:35;;;;;;;1.50;1.42;;;;;;;;;;6243462;28;20033;-77
2023/03/06 12:38:58;;;;;;;0.40;0.40;;;;;;;;;;6245064;28;20467;-77
2023/03/06 12:41:58;;;;;;;1.08;1.08;;;;;;;;;;6237028;28;20108;-76
2023/03/06 12:45:19;;;;;;;2.10;2.00;;;;;;;;;;6237254;28;20082;-78
2023/03/06 12:48:22;;;;;;;6.07;3.40;;;;;;;;;;6247590;28;20496;-77
2023/03/06 12:51:23;;;;;;;1.00;0.93;;;;;;;;;;6239063;28;20021;-77
2023/03/06 12:54:29;;;;;;;0.53;0.53;;;;;;;;;;6240104;28;20024;-77
2023/03/06 12:57:29;;;;;;;1.88;1.40;;;;;;;;;;6252753;28;20394;-77
2023/03/06 13:00:36;;;;;;;6.13;3.70;;;;;;;;;;6245262;28;20064;-77
2023/03/06 13:03:57;;;;;;;8.43;4.07;;;;;;;;;;6240325;28;20074;-77
2023/03/06 13:06:58;;;;;;;0.82;0.82;;;;;;;;;;6244695;28;20060;-77
2023/03/06 13:10:11;;;;;;;0.95;0.95;;;;;;;;;;6249347;28;20021;-77
2023/03/06 13:13:31;;;;;;;3.00;1.10;;;;;;;;;;6244258;28;20063;-77
2023/03/06 13:16:32;;;;;;;0.50;0.50;;;;;;;;;;6241818;28;20119;-76
2023/03/06 13:19:33;;;;;;;0.90;0.90;;;;;;;;;;6244704;28;20136;-77
2023/03/06 13:22:33;;;;;;;0.50;0.50;;;;;;;;;;6248405;28;20437;-77
2023/03/06 13:25:34;;;;;;;0.30;0.30;;;;;;;;;;6255366;28;20056;-78
2023/03/06 13:28:44;;;;;;;0.20;0.20;;;;;;;;;;6246880;28;20033;-77
2023/03/06 13:31:45;;;;;;;1.15;1.15;;;;;;;;;;6247969;28;20112;-77
2023/03/06 13:34:47;;;;;;;2.50;2.35;;;;;;;;;;6243156;28;20039;-77
2023/03/06 13:37:48;;;;;;;0.22;0.22;;;;;;;;;;6242099;28;20028;-77
2023/03/06 13:40:50;;;;;;;0.55;0.55;;;;;;;;;;6249775;28;20118;-77
2023/03/06 13:43:58;;;;;;;3.97;2.33;;;;;;;;;;6253704;28;20072;-77
2023/03/06 13:46:59;;;;;;;0.93;0.88;;;;;;;;;;6247234;28;20037;-77
2023/03/06 13:50:09;;;;;;;2.83;1.95;;;;;;;;;;6240304;28;20077;-77
2023/03/06 13:53:35;;;;;;;1.45;1.35;;;;;;;;;;6229266;28;20026;-77
2023/03/06 13:56:38;;;;;;;0.63;0.63;;;;;;;;;;6244472;28;20020;-76
2023/03/06 13:59:47;;;;;;;1.92;1.75;;;;;;;;;;6250976;28;20028;-78
2023/03/06 14:02:56;;;;;;;0.90;0.90;;;;;;;;;;6238686;28;20406;-77
2023/03/06 14:05:57;;;;;;;0.47;0.47;;;;;;;;;;6240511;28;20032;-77
2023/03/06 14:08:59;;;;;;;0.63;0.63;;;;;;;;;;6238985;28;20022;-77
2023/03/06 14:12:03;;;;;;;2.90;1.73;;;;;;;;;;6256975;28;20025;-77
2023/03/06 14:15:10;;;;;;;0.40;0.40;;;;;;;;;;6257464;28;20061;-77
2023/03/06 14:18:19;;;;;;;1.13;1.13;;;;;;;;;;6254371;28;20473;-77
2023/03/06 14:21:29;;;;;;;0.40;0.40;;;;;;;;;;6249672;28;20029;-78
2023/03/06 14:24:35;;;;;;;1.80;1.70;;;;;;;;;;6244509;28;20029;-77
2023/03/06 14:27:36;;;;;;;0.43;0.43;;;;;;;;;;6252285;28;20025;-78
2023/03/06 14:30:36;;;;;;;3.93;3.63;;;;;;;;;;6245058;28;20483;-77
2023/03/06 14:33:36;;;;;;;1.37;1.27;;;;;;;;;;6248346;28;20460;-78
2023/03/06 14:36:49;;;;;;;0.87;0.87;;;;;;;;;;6248245;28;20025;-77
2023/03/06 14:39:49;;;;;;;5.00;2.88;;;;;;;;;;6253986;28;20101;-77
2023/03/06 14:43:08;;;;;;;0.20;0.20;;;;;;;;;;6248780;28;20021;-76
2023/03/06 14:46:16;;;;;;;0.32;0.32;;;;;;;;;;6246686;28;20068;-78
2023/03/06 14:49:18;;;;;;;1.58;1.48;;;;;;;;;;6247421;28;20029;-77
2023/03/06 14:52:19;;;;;;;2.92;2.72;;;;;;;;;;6249244;28;20034;-78
2023/03/06 14:55:21;;;;;;;1.67;1.55;;;;;;;;;;6223831;28;20029;-77
2023/03/06 14:58:32;;;;;;;1.23;1.23;;;;;;;;;;6249849;28;20036;-77
2023/03/06 15:01:37;;;;;;;0.77;0.77;;;;;;;;;;6253935;28;20383;-77
2023/03/06 15:04:42;;;;;;;0.50;0.50;;;;;;;;;;6266331;28;20350;-80
2023/03/06 15:07:42;;;;;;;1.45;1.45;;;;;;;;;;6258757;28;20041;-80
2023/03/06 15:10:53;;;;;;;0.87;0.87;;;;;;;;;;6256542;28;20467;-79
2023/03/06 15:14:00;;;;;;;1.85;1.75;;;;;;;;;;6254854;28;20048;-79
2023/03/06 15:17:18;;;;;;;1.13;1.13;;;;;;;;;;6242719;28;20017;-77
2023/03/06 15:20:41;;;;;;;2.65;2.15;;;;;;;;;;6251006;28;20463;-77
2023/03/06 15:23:43;;;;;;;0.40;0.40;;;;;;;;;;6258153;28;20017;-77
2023/03/06 15:26:49;;;;;;;9.35;2.10;;;;;;;;;;6259125;28;20021;-77
2023/03/06 15:29:50;;;;;;;2.60;2.40;;;;;;;;;;6229180;28;20037;-77
2023/03/06 15:32:50;;;;;;;0.75;0.75;;;;;;;;;;6233843;28;20072;-77
2023/03/06 15:35:55;;;;;;;0.60;0.60;;;;;;;;;;6231162;28;20495;-77
2023/03/06 15:38:57;;;;;;;1.40;1.40;;;;;;;;;;6252254;28;20014;-77
2023/03/06 15:42:19;;;;;;;2.13;1.90;;;;;;;;;;6248465;28;20521;-77
2023/03/06 15:45:20;;;;;;;3.88;3.60;;;;;;;;;;6259623;28;20029;-77
2023/03/06 15:48:22;;;;;;;1.13;1.13;;;;;;;;;;6235061;28;20029;-76
2023/03/06 15:51:23;;;;;;;2.55;2.05;;;;;;;;;;6247109;28;20030;-78
2023/03/06 15:54:23;;;;;;;5.67;4.23;;;;;;;;;;6245912;28;20029;-77
2023/03/06 15:57:24;;;;;;;2.00;1.80;;;;;;;;;;6252954;28;20439;-77
2023/03/06 16:00:27;;;;;;;3.97;2.90;;;;;;;;;;6254339;28;20016;-77
2023/03/06 16:03:27;;;;;;;1.55;1.55;;;;;;;;;;6243709;28;20032;-77
2023/03/06 16:06:28;;;;;;;1.98;1.88;;;;;;;;;;6242996;28;20021;-77
2023/03/06 16:09:28;;;;;;;0.80;0.80;;;;;;;;;;6244138;28;20041;-76
2023/03/06 16:12:29;;;;;;;5.47;4.97;;;;;;;;;;6249255;28;20072;-76
2023/03/06 16:15:31;;;;;;;0.83;0.83;;;;;;;;;;6243818;28;20028;-77
2023/03/06 16:18:32;;;;;;;0.95;0.95;;;;;;;;;;6237623;28;20009;-77
2023/03/06 16:21:33;;;;;;;4.30;4.10;;;;;;;;;;6212727;28;20041;-76
2023/03/06 16:24:33;;;;;;;3.15;2.95;;;;;;;;;;6245668;28;20021;-77
2023/03/06 16:27:34;;;;;;;4.97;4.20;;;;;;;;;;6225390;28;20029;-77
2023/03/06 16:30:34;;;;;;;7.50;4.70;;;;;;;;;;6243266;28;20010;-75
2023/03/06 16:33:35;;;;;;;5.00;4.67;;;;;;;;;;6249797;28;20009;-77
2023/03/06 16:36:35;;;;;;;3.00;2.60;;;;;;;;;;6246533;28;20541;-77
2023/03/06 16:39:35;;;;;;;1.53;1.20;;;;;;;;;;6240220;28;20032;-77
2023/03/06 16:42:37;;;;;;;2.08;1.98;;;;;;;;;;6259556;28;20009;-77
2023/03/06 16:45:38;;;;;;;1.40;1.40;;;;;;;;;;6245610;28;20059;-77
2023/03/06 16:48:40;;;;;;;3.70;3.47;;;;;;;;;;6236402;28;20545;-77
2023/03/06 16:51:40;;;;;;;0.40;0.40;;;;;;;;;;6248664;28;20147;-76
2023/03/06 16:54:41;;;;;;;1.97;1.87;;;;;;;;;;6241612;28;20356;-76
2023/03/06 16:57:42;;;;;;;4.38;3.25;;;;;;;;;;6247536;28;20024;-76
2023/03/06 17:00:42;;;;;;;5.03;4.07;;;;;;;;;;6224946;28;20096;-77
2023/03/06 17:03:43;;;;;;;2.27;2.13;;;;;;;;;;6242001;28;20022;-77
2023/03/06 17:06:44;;;;;;;3.33;3.10;;;;;;;;;;6235269;28;20042;-77
2023/03/06 17:09:53;;;;;;;2.97;2.77;;;;;;;;;;6250219;28;20144;-78
2023/03/06 17:12:54;;;;;;;2.20;2.13;;;;;;;;;;6242370;28;20112;-77
2023/03/06 17:15:58;;;;;;;2.10;2.00;;;;;;;;;;6249994;28;20493;-77
2023/03/06 17:18:59;;;;;;;2.25;2.08;;;;;;;;;;6246967;28;20496;-77
2023/03/06 17:21:59;;;;;;;4.93;3.78;;;;;;;;;;6251915;28;20025;-77
2023/03/06 17:25:01;;;;;;;2.73;2.60;;;;;;;;;;6252461;28;20025;-78
2023/03/06 17:28:02;;;;;;;1.20;1.17;;;;;;;;;;6255183;28;20486;-77
2023/03/06 17:31:09;;;;;;;1.13;1.10;;;;;;;;;;6262939;28;20075;-78
2023/03/06 17:34:13;;;;;;;2.47;2.33;;;;;;;;;;6252332;28;20029;-78
2023/03/06 17:37:13;;;;;;;4.68;4.32;;;;;;;;;;6245352;28;20037;-78
2023/03/06 17:40:14;;;;;;;2.97;2.75;;;;;;;;;;6250532;28;20032;-78
2023/03/06 17:43:14;;;;;;;1.83;1.73;;;;;;;;;;6234934;28;20075;-78
2023/03/06 17:46:16;;;;;;;2.00;1.70;;;;;;;;;;6240996;28;20021;-78
2023/03/06 17:49:20;;;;;;;3.40;2.63;;;;;;;;;;6258595;28;20044;-79
2023/03/06 17:52:20;;;;;;;0.80;0.80;;;;;;;;;;6253105;28;20013;-77
2023/03/06 17:55:20;;;;;;;1.73;1.63;;;;;;;;;;6255877;28;20603;-78
2023/03/06 17:58:20;;;;;;;2.38;2.28;;;;;;;;;;6250090;28;20118;-77
2023/03/06 18:01:25;;;;;;;2.93;2.73;;;;;;;;;;6238967;28;20376;-78
2023/03/06 18:04:28;;;;;;;1.08;1.08;;;;;;;;;;6255920;28;20017;-78
2023/03/06 18:07:28;;;;;;;7.63;3.20;;;;;;;;;;6249253;28;20404;-78
2023/03/06 18:10:28;;;;;;;10.32;5.03;;;;;;;;;;6259337;28;20078;-78
2023/03/06 18:13:29;;;;;;;2.93;2.83;;;;;;;;;;6247868;28;20041;-77
2023/03/06 18:16:29;;;;;;;4.40;4.00;;;;;;;;;;6225197;28;20029;-77